createdAt,value
2018-10-18T00:00:12.714Z,95.57
2018-10-18T00:02:41.379Z,95.71
2018-10-18T00:05:10.326Z,94.78
2018-10-18T00:07:39.018Z,94.32
2018-10-18T00:10:08.358Z,93.73
2018-10-18T00:12:37.108Z,94.42
2018-10-18T00:15:06.562Z,94.62
2018-10-18T00:17:40.230Z,94.53
2018-10-18T00:20:09.064Z,94.89
2018-10-18T00:22:37.630Z,95.50
2018-10-18T00:25:06.470Z,95.78
2018-10-18T00:27:35.211Z,95.18
2018-10-18T00:30:03.936Z,95.35
2018-10-18T00:32:32.550Z,95.45
2018-10-18T00:35:01.161Z,96.10
2018-10-18T00:37:29.763Z,96.15
2018-10-18T00:39:58.394Z,95.82
2018-10-18T00:42:26.966Z,96.02
2018-10-18T00:44:55.603Z,96.66
2018-10-18T00:47:24.220Z,96.30
2018-10-18T00:49:52.839Z,97.09
2018-10-18T00:52:21.490Z,96.54
2018-10-18T00:54:50.069Z,96.71
2018-10-18T00:57:18.682Z,96.31
2018-10-18T00:59:47.265Z,95.94
2018-10-18T01:02:15.963Z,95.84
2018-10-18T01:04:44.490Z,96.12
2018-10-18T01:07:13.338Z,95.58
2018-10-18T01:09:41.963Z,94.52
2018-10-18T01:12:10.666Z,94.29
2018-10-18T01:14:44.482Z,94.21
2018-10-18T01:17:13.083Z,94.86
2018-10-18T01:19:41.717Z,94.97
2018-10-18T01:22:10.389Z,94.96
2018-10-18T01:24:39.012Z,94.90
2018-10-18T01:27:07.933Z,94.71
2018-10-18T01:29:36.514Z,94.78
2018-10-18T01:32:05.713Z,93.97
2018-10-18T01:34:34.341Z,93.57
2018-10-18T01:37:02.935Z,93.52
2018-10-18T01:39:31.590Z,94.23
2018-10-18T01:42:00.281Z,93.87
2018-10-18T01:44:28.838Z,93.52
2018-10-18T01:46:57.470Z,93.19
2018-10-18T01:49:26.108Z,92.87
2018-10-18T01:51:54.762Z,92.21
2018-10-18T01:54:23.358Z,92.24
2018-10-18T01:56:51.951Z,91.47
2018-10-18T01:59:20.539Z,92.12
2018-10-18T02:01:49.202Z,91.63
2018-10-18T02:04:17.865Z,92.38
2018-10-18T02:06:46.455Z,91.65
2018-10-18T02:09:15.078Z,91.80
2018-10-18T02:11:43.722Z,91.87
2018-10-18T02:14:12.335Z,91.91
2018-10-18T02:16:40.989Z,91.80
2018-10-18T02:19:09.595Z,92.09
2018-10-18T02:21:38.210Z,92.54
2018-10-18T02:24:07.030Z,93.07
2018-10-18T02:26:35.558Z,92.94
2018-10-18T02:29:04.238Z,93.37
2018-10-18T02:31:32.891Z,93.61
2018-10-18T02:34:01.442Z,94.05
2018-10-18T02:36:30.107Z,93.97
2018-10-18T02:38:58.712Z,93.80
2018-10-18T02:41:27.369Z,94.67
2018-10-18T02:43:55.954Z,95.17
2018-10-18T02:46:25.394Z,95.53
2018-10-18T02:48:54.057Z,95.77
2018-10-18T02:51:22.663Z,96.20
2018-10-18T02:53:51.350Z,96.14
2018-10-18T02:56:19.982Z,96.05
2018-10-18T02:58:48.579Z,95.84
2018-10-18T03:01:17.181Z,95.58
2018-10-18T03:03:45.825Z,96.03
2018-10-18T03:06:14.595Z,94.70
2018-10-18T03:08:43.332Z,94.86
2018-10-18T03:11:12.010Z,94.38
2018-10-18T03:13:40.606Z,94.62
2018-10-18T03:16:09.282Z,93.96
2018-10-18T03:18:37.877Z,94.49
2018-10-18T03:21:06.510Z,94.82
2018-10-18T03:23:35.108Z,94.50
2018-10-18T03:26:03.715Z,94.99
2018-10-18T03:28:32.432Z,95.36
2018-10-18T03:31:01.097Z,95.93
2018-10-18T03:33:29.836Z,96.57
2018-10-18T03:35:58.843Z,96.67
2018-10-18T03:38:27.495Z,96.76
2018-10-18T03:40:56.266Z,95.89
2018-10-18T03:43:24.885Z,96.22
2018-10-18T03:45:53.520Z,94.90
2018-10-18T03:48:22.137Z,94.64
2018-10-18T03:50:50.782Z,95.50
2018-10-18T03:53:19.399Z,94.81
2018-10-18T03:55:48.089Z,95.12
2018-10-18T03:58:16.898Z,95.71
2018-10-18T04:00:45.606Z,95.38
2018-10-18T04:03:14.218Z,96.06
2018-10-18T04:05:42.824Z,96.31
2018-10-18T04:08:11.423Z,96.98
2018-10-18T04:10:40.086Z,97.33
2018-10-18T04:13:08.731Z,98.04
2018-10-18T04:15:37.326Z,96.62
2018-10-18T04:18:06.235Z,95.31
2018-10-18T04:20:34.678Z,95.58
2018-10-18T04:23:03.409Z,96.74
2018-10-18T04:25:32.104Z,97.30
2018-10-18T04:28:00.712Z,97.42
2018-10-18T04:30:29.320Z,98.00
2018-10-18T04:32:58.009Z,98.21
2018-10-18T04:35:26.636Z,98.34
2018-10-18T04:37:55.249Z,97.67
2018-10-18T04:40:23.893Z,98.03
2018-10-18T04:42:52.507Z,98.53
2018-10-18T04:45:21.137Z,98.03
2018-10-18T04:47:49.929Z,98.35
2018-10-18T04:50:18.375Z,97.35
2018-10-18T04:52:46.983Z,97.78
2018-10-18T04:55:15.656Z,98.21
2018-10-18T04:57:44.221Z,98.55
2018-10-18T05:00:12.885Z,99.25
2018-10-18T05:02:41.643Z,98.75
2018-10-18T05:05:21.217Z,98.79
2018-10-18T05:07:49.848Z,98.81
2018-10-18T05:10:18.451Z,98.98
2018-10-18T05:12:47.105Z,99.18
2018-10-18T05:15:17.221Z,99.40
2018-10-18T05:17:45.887Z,100.00
2018-10-18T05:20:14.597Z,100.00
2018-10-18T05:22:43.259Z,100.00
2018-10-18T05:25:11.972Z,100.00
2018-10-18T05:27:40.560Z,100.00
2018-10-18T05:30:09.548Z,100.00
2018-10-18T05:32:38.194Z,100.00
2018-10-18T05:35:07.083Z,100.00
2018-10-18T05:37:35.878Z,100.00
2018-10-18T05:40:04.853Z,100.00
2018-10-18T05:42:33.462Z,100.00
2018-10-18T05:45:02.154Z,100.00
2018-10-18T05:47:30.814Z,100.00
2018-10-18T05:49:59.466Z,100.00
2018-10-18T05:52:28.105Z,100.00
2018-10-18T05:54:56.794Z,100.00
2018-10-18T05:57:31.994Z,100.00
2018-10-18T06:00:00.660Z,100.00
2018-10-18T06:02:29.287Z,100.00
2018-10-18T06:04:58.025Z,100.00
2018-10-18T06:07:26.720Z,100.00
2018-10-18T06:12:29.238Z,100.00
2018-10-18T06:14:57.901Z,100.00
2018-10-18T06:17:26.570Z,100.00
2018-10-18T06:19:55.263Z,100.00
2018-10-18T06:22:24.336Z,99.67
2018-10-18T06:24:52.996Z,99.96
2018-10-18T06:27:21.702Z,99.30
2018-10-18T06:29:50.362Z,98.90
2018-10-18T06:32:19.024Z,98.73
2018-10-18T06:34:47.693Z,99.32
2018-10-18T06:37:16.359Z,98.99
2018-10-18T06:39:45.054Z,98.90
2018-10-18T06:42:13.719Z,98.44
2018-10-18T06:44:42.381Z,98.76
2018-10-18T06:47:11.346Z,98.82
2018-10-18T06:49:39.885Z,98.74
2018-10-18T06:52:08.466Z,98.51
2018-10-18T06:54:37.148Z,98.14
2018-10-18T06:57:06.742Z,98.38
2018-10-18T06:59:35.468Z,97.80
2018-10-18T07:02:04.367Z,98.32
2018-10-18T07:04:33.070Z,97.86
2018-10-18T07:07:02.245Z,97.92
2018-10-18T07:09:30.982Z,97.59
2018-10-18T07:11:59.842Z,97.63
2018-10-18T07:14:28.493Z,96.73
2018-10-18T07:16:57.223Z,95.29
2018-10-18T07:19:25.946Z,95.28
2018-10-18T07:21:54.732Z,94.60
2018-10-18T07:24:23.411Z,95.12
2018-10-18T07:26:52.218Z,94.11
2018-10-18T07:29:20.943Z,93.44
2018-10-18T07:31:49.644Z,92.26
2018-10-18T07:34:18.388Z,92.05
2018-10-18T07:36:47.224Z,91.83
2018-10-18T07:39:15.972Z,92.16
2018-10-18T07:41:45.025Z,92.28
2018-10-18T07:44:13.801Z,92.14
2018-10-18T07:46:42.576Z,92.28
2018-10-18T07:49:11.270Z,91.55
2018-10-18T07:51:39.983Z,91.34
2018-10-18T07:54:08.766Z,91.07
2018-10-18T07:56:37.461Z,91.03
2018-10-18T07:59:06.370Z,91.13
2018-10-18T08:01:35.071Z,90.63
2018-10-18T08:04:03.742Z,90.17
2018-10-18T08:06:32.534Z,89.61
2018-10-18T08:09:01.360Z,89.11
2018-10-18T08:11:30.136Z,88.93
2018-10-18T08:13:58.912Z,88.62
2018-10-18T08:16:27.702Z,88.66
2018-10-18T08:18:56.506Z,88.04
2018-10-18T08:21:25.279Z,87.35
2018-10-18T08:23:54.013Z,87.28
2018-10-18T08:26:22.873Z,86.68
2018-10-18T08:28:51.651Z,86.50
2018-10-18T08:31:20.611Z,85.85
2018-10-18T08:33:49.349Z,84.66
2018-10-18T08:36:18.194Z,84.24
2018-10-18T08:38:47.073Z,82.17
2018-10-18T08:41:16.486Z,80.87
2018-10-18T08:43:45.371Z,78.83
2018-10-18T08:46:14.178Z,78.21
2018-10-18T08:48:42.952Z,77.21
2018-10-18T08:51:11.740Z,76.51
2018-10-18T08:53:41.350Z,76.84
2018-10-18T08:56:10.227Z,75.50
2018-10-18T08:58:39.031Z,75.66
2018-10-18T09:01:07.789Z,76.11
2018-10-18T09:03:36.480Z,76.44
2018-10-18T09:06:05.666Z,76.11
2018-10-18T09:08:34.413Z,75.80
2018-10-18T09:11:03.232Z,76.35
2018-10-18T09:13:31.990Z,75.82
2018-10-18T09:16:00.848Z,75.20
2018-10-18T09:18:29.550Z,75.32
2018-10-18T09:20:58.266Z,74.91
2018-10-18T09:23:26.982Z,74.90
2018-10-18T09:25:55.799Z,75.06
2018-10-18T09:28:24.576Z,75.40
2018-10-18T09:30:53.332Z,74.62
2018-10-18T09:33:22.031Z,74.08
2018-10-18T09:35:50.731Z,73.96
2018-10-18T09:38:19.519Z,73.84
2018-10-18T09:40:48.287Z,73.53
2018-10-18T09:43:17.231Z,73.44
2018-10-18T09:45:45.976Z,72.44
2018-10-18T09:48:14.839Z,72.64
2018-10-18T09:50:43.590Z,73.13
2018-10-18T09:53:12.283Z,73.08
2018-10-18T09:55:41.086Z,73.00
2018-10-18T09:58:09.844Z,73.00
2018-10-18T10:00:43.549Z,73.21
2018-10-18T10:03:13.632Z,72.66
2018-10-18T10:05:42.419Z,72.68
2018-10-18T10:08:11.516Z,71.16
2018-10-18T10:10:40.300Z,70.48
2018-10-18T10:13:09.545Z,69.82
2018-10-18T10:15:38.275Z,69.45
2018-10-18T10:18:07.040Z,69.29
2018-10-18T10:20:35.900Z,68.68
2018-10-18T10:23:04.664Z,68.71
2018-10-18T10:25:33.428Z,68.36
2018-10-18T10:28:02.317Z,68.14
2018-10-18T10:30:31.154Z,67.61
2018-10-18T10:32:59.841Z,67.85
2018-10-18T10:35:28.727Z,66.23
2018-10-18T10:37:57.573Z,66.98
2018-10-18T10:40:26.348Z,67.07
2018-10-18T10:42:55.212Z,66.79
2018-10-18T10:45:24.234Z,65.85
2018-10-18T10:47:53.275Z,66.13
2018-10-18T10:50:22.090Z,66.22
2018-10-18T10:52:50.876Z,66.21
2018-10-18T10:55:19.593Z,66.21
2018-10-18T10:57:48.306Z,65.89
2018-10-18T11:00:26.890Z,64.81
2018-10-18T11:02:55.643Z,64.54
2018-10-18T11:05:24.364Z,65.26
2018-10-18T11:07:53.077Z,64.17
2018-10-18T11:10:21.754Z,64.16
2018-10-18T11:12:50.489Z,63.66
2018-10-18T11:15:19.336Z,63.34
2018-10-18T11:17:47.951Z,63.25
2018-10-18T11:20:16.697Z,63.78
2018-10-18T11:22:45.436Z,63.44
2018-10-18T11:25:14.185Z,62.74
2018-10-18T11:27:42.945Z,62.31
2018-10-18T11:30:11.741Z,61.90
2018-10-18T11:32:40.462Z,62.71
2018-10-18T11:35:09.164Z,62.54
2018-10-18T11:37:37.935Z,62.45
2018-10-18T11:40:07.254Z,61.53
2018-10-18T11:42:36.089Z,61.96
2018-10-18T11:45:04.747Z,61.64
2018-10-18T11:47:33.575Z,60.26
2018-10-18T11:50:02.304Z,60.92
2018-10-18T11:52:31.010Z,60.76
2018-10-18T11:54:59.695Z,59.61
2018-10-18T11:57:28.401Z,59.48
2018-10-18T11:59:57.110Z,59.19
2018-10-18T12:02:25.871Z,59.95
2018-10-18T12:04:54.660Z,59.82
2018-10-18T12:07:23.419Z,60.40
2018-10-18T12:09:52.142Z,60.16
2018-10-18T12:12:20.820Z,60.54
2018-10-18T12:14:49.549Z,60.74
2018-10-18T12:17:18.260Z,60.88
2018-10-18T12:19:46.967Z,60.39
2018-10-18T12:22:15.688Z,59.94
2018-10-18T12:24:44.385Z,59.14
2018-10-18T12:27:13.188Z,59.29
2018-10-18T12:29:41.896Z,59.49
2018-10-18T12:32:10.679Z,58.09
2018-10-18T12:34:39.439Z,58.41
2018-10-18T12:37:08.137Z,58.35
2018-10-18T12:39:36.887Z,57.55
2018-10-18T12:42:05.639Z,58.58
2018-10-18T12:44:40.018Z,58.29
2018-10-18T12:47:10.495Z,58.92
2018-10-18T12:49:40.498Z,58.94
2018-10-18T12:52:10.789Z,58.48
2018-10-18T12:54:39.809Z,58.95
2018-10-18T12:57:10.098Z,58.81
2018-10-18T12:59:38.788Z,58.15
2018-10-18T13:02:07.766Z,57.02
2018-10-18T13:04:36.765Z,57.25
2018-10-18T13:07:05.659Z,56.91
2018-10-18T13:09:34.473Z,56.49
2018-10-18T13:12:03.193Z,56.64
2018-10-18T13:14:31.922Z,57.30
2018-10-18T13:17:00.622Z,57.74
2018-10-18T13:19:29.300Z,57.91
2018-10-18T13:21:58.014Z,57.84
2018-10-18T13:24:26.676Z,57.88
2018-10-18T13:26:55.384Z,57.16
2018-10-18T13:29:24.077Z,57.34
2018-10-18T13:31:52.729Z,56.98
2018-10-18T13:34:21.387Z,57.25
2018-10-18T13:36:50.030Z,57.07
2018-10-18T13:39:18.711Z,57.54
2018-10-18T13:41:47.378Z,57.42
2018-10-18T13:44:16.054Z,57.58
2018-10-18T13:46:44.764Z,57.68
2018-10-18T13:49:13.419Z,57.01
2018-10-18T13:51:42.277Z,57.12
2018-10-18T13:54:11.056Z,57.24
2018-10-18T13:56:39.623Z,57.36
2018-10-18T13:59:18.144Z,57.71
2018-10-18T14:01:46.702Z,56.93
2018-10-18T14:04:15.383Z,57.54
2018-10-18T14:06:44.034Z,56.99
2018-10-18T14:09:12.679Z,56.82
2018-10-18T14:11:41.439Z,55.72
2018-10-18T14:14:10.200Z,54.99
2018-10-18T14:16:38.836Z,53.95
2018-10-18T14:19:07.488Z,52.66
2018-10-18T14:21:36.254Z,51.66
2018-10-18T14:24:05.688Z,50.50
2018-10-18T14:26:34.340Z,49.35
2018-10-18T14:29:03.044Z,48.64
2018-10-18T14:31:31.706Z,48.19
2018-10-18T14:34:00.342Z,47.99
2018-10-18T14:36:29.084Z,47.38
2018-10-18T14:38:57.916Z,46.80
2018-10-18T14:41:31.987Z,46.61
2018-10-18T14:44:00.683Z,46.50
2018-10-18T14:46:29.350Z,46.28
2018-10-18T14:48:58.010Z,46.19
2018-10-18T14:51:26.683Z,46.29
2018-10-18T14:53:55.366Z,46.38
2018-10-18T14:56:24.153Z,46.54
2018-10-18T14:58:52.899Z,46.54
2018-10-18T15:01:21.595Z,46.92
2018-10-18T15:03:50.428Z,47.20
2018-10-18T15:06:19.275Z,48.26
2018-10-18T15:08:47.967Z,49.78
2018-10-18T15:11:16.661Z,51.76
2018-10-18T15:13:45.379Z,53.17
2018-10-18T15:16:14.148Z,55.44
2018-10-18T15:18:42.890Z,56.57
2018-10-18T15:21:11.595Z,56.33
2018-10-18T15:23:40.263Z,56.66
2018-10-18T15:26:09.098Z,57.53
2018-10-18T15:28:37.683Z,57.86
2018-10-18T15:31:06.407Z,58.17
2018-10-18T15:33:35.112Z,58.31
2018-10-18T15:36:03.937Z,58.68
2018-10-18T15:38:32.668Z,59.52
2018-10-18T15:41:01.333Z,60.17
2018-10-18T15:43:30.064Z,60.96
2018-10-18T15:45:58.735Z,61.92
2018-10-18T15:48:27.416Z,63.39
2018-10-18T15:50:56.122Z,64.62
2018-10-18T15:53:24.754Z,65.29
2018-10-18T15:55:53.464Z,66.97
2018-10-18T15:58:22.120Z,67.61
2018-10-18T16:00:50.793Z,69.20
2018-10-18T16:03:19.587Z,69.87
2018-10-18T16:05:48.247Z,71.56
2018-10-18T16:08:16.991Z,72.64
2018-10-18T16:10:45.715Z,73.83
2018-10-18T16:13:14.486Z,74.37
2018-10-18T16:15:43.229Z,75.37
2018-10-18T16:18:11.945Z,76.10
2018-10-18T16:20:40.735Z,76.87
2018-10-18T16:23:09.471Z,76.86
2018-10-18T16:25:38.206Z,77.12
2018-10-18T16:28:06.971Z,77.86
2018-10-18T16:30:35.604Z,78.64
2018-10-18T16:33:04.398Z,78.78
2018-10-18T16:35:33.073Z,79.33
2018-10-18T16:38:01.765Z,80.36
2018-10-18T16:40:30.522Z,80.99
2018-10-18T16:43:04.724Z,81.21
2018-10-18T16:45:33.452Z,81.57
2018-10-18T16:48:02.166Z,82.32
2018-10-18T16:50:30.859Z,82.47
2018-10-18T16:52:59.583Z,82.87
2018-10-18T16:55:28.235Z,83.81
2018-10-18T16:57:56.975Z,84.22
2018-10-18T17:00:25.635Z,84.21
2018-10-18T17:02:54.360Z,84.70
2018-10-18T17:05:23.098Z,84.50
2018-10-18T17:07:51.850Z,85.19
2018-10-18T17:10:20.630Z,85.67
2018-10-18T17:12:49.213Z,85.74
2018-10-18T17:15:18.198Z,86.03
2018-10-18T17:17:47.818Z,85.79
2018-10-18T17:20:16.712Z,86.93
2018-10-18T17:22:45.308Z,87.17
2018-10-18T17:25:14.006Z,86.70
2018-10-18T17:27:42.717Z,86.76
2018-10-18T17:30:11.376Z,87.10
2018-10-18T17:32:40.160Z,86.83
2018-10-18T17:35:08.845Z,87.59
2018-10-18T17:37:37.574Z,87.95
2018-10-18T17:40:06.849Z,87.78
2018-10-18T17:42:35.465Z,88.61
2018-10-18T17:45:04.175Z,88.56
2018-10-18T17:47:32.859Z,88.40
2018-10-18T17:50:01.569Z,88.57
2018-10-18T17:52:30.216Z,88.46
2018-10-18T17:54:58.941Z,88.62
2018-10-18T17:57:27.614Z,88.83
2018-10-18T17:59:56.417Z,88.83
2018-10-18T18:02:25.091Z,89.62
2018-10-18T18:04:53.791Z,89.79
2018-10-18T18:07:22.470Z,89.83
2018-10-18T18:09:51.107Z,90.47
2018-10-18T18:12:19.801Z,90.15
2018-10-18T18:14:48.528Z,90.72
2018-10-18T18:17:17.238Z,90.71
2018-10-18T18:19:46.006Z,91.13
2018-10-18T18:22:14.667Z,91.71
2018-10-18T18:24:43.420Z,91.93
2018-10-18T18:27:12.077Z,92.29
2018-10-18T18:29:40.734Z,92.02
2018-10-18T18:32:09.524Z,92.04
2018-10-18T18:34:38.316Z,92.00
2018-10-18T18:37:07.076Z,91.99
2018-10-18T18:39:35.817Z,92.51
2018-10-18T18:42:04.586Z,92.34
2018-10-18T18:44:33.320Z,92.26
2018-10-18T18:47:02.046Z,92.29
2018-10-18T18:49:30.805Z,92.57
2018-10-18T18:51:59.599Z,93.24
2018-10-18T18:54:28.338Z,92.79
2018-10-18T18:56:57.086Z,93.39
2018-10-18T18:59:25.775Z,93.41
2018-10-18T19:01:54.475Z,93.52
2018-10-18T19:04:23.174Z,93.62
2018-10-18T19:06:51.818Z,94.26
2018-10-18T19:09:20.439Z,94.07
2018-10-18T19:11:49.303Z,94.71
2018-10-18T19:14:17.998Z,94.86
2018-10-18T19:16:46.740Z,94.43
2018-10-18T19:19:15.516Z,94.48
2018-10-18T19:21:44.289Z,94.40
2018-10-18T19:24:13.197Z,94.48
2018-10-18T19:26:41.944Z,93.02
2018-10-18T19:29:10.696Z,93.08
2018-10-18T19:31:39.527Z,93.93
2018-10-18T19:34:08.497Z,93.93
2018-10-18T19:36:37.314Z,93.86
2018-10-18T19:39:07.942Z,93.11
2018-10-18T19:41:36.684Z,93.16
2018-10-18T19:44:05.732Z,93.90
2018-10-18T19:46:34.541Z,94.43
2018-10-18T19:49:03.343Z,95.27
2018-10-18T19:51:32.202Z,95.44
2018-10-18T19:54:00.908Z,95.80
2018-10-18T19:56:29.542Z,95.67
2018-10-18T19:58:58.187Z,96.44
2018-10-18T20:01:26.910Z,96.46
2018-10-18T20:03:55.635Z,96.62
2018-10-18T20:06:24.361Z,97.08
2018-10-18T20:08:53.093Z,96.56
2018-10-18T20:11:21.847Z,97.25
2018-10-18T20:13:50.589Z,97.02
2018-10-18T20:16:19.321Z,96.69
2018-10-18T20:18:48.290Z,96.36
2018-10-18T20:21:17.084Z,96.34
2018-10-18T20:23:45.916Z,96.47
2018-10-18T20:26:14.840Z,96.00
2018-10-18T20:28:43.360Z,96.45
2018-10-18T20:31:12.174Z,95.89
2018-10-18T20:33:40.824Z,96.54
2018-10-18T20:36:09.610Z,96.48
2018-10-18T20:38:38.316Z,97.13
2018-10-18T20:41:07.173Z,97.29
2018-10-18T20:43:35.826Z,97.67
2018-10-18T20:46:04.645Z,97.42
2018-10-18T20:48:34.004Z,97.54
2018-10-18T20:51:03.521Z,97.77
2018-10-18T20:53:32.483Z,97.36
2018-10-18T20:56:02.110Z,97.76
2018-10-18T20:58:31.930Z,97.86
2018-10-18T21:01:00.830Z,96.98
2018-10-18T21:03:29.525Z,95.26
2018-10-18T21:05:59.071Z,93.69
2018-10-18T21:08:27.676Z,92.28
2018-10-18T21:10:56.444Z,92.13
2018-10-18T21:13:25.117Z,91.43
2018-10-18T21:15:53.776Z,89.62
2018-10-18T21:18:22.566Z,89.49
2018-10-18T21:20:51.325Z,90.09
2018-10-18T21:23:20.041Z,90.58
2018-10-18T21:25:48.766Z,88.57
2018-10-18T21:28:17.475Z,88.69
2018-10-18T21:30:46.198Z,88.42
2018-10-18T21:33:14.997Z,88.68
2018-10-18T21:35:43.595Z,87.86
2018-10-18T21:38:12.251Z,88.30
2018-10-18T21:40:40.935Z,88.10
2018-10-18T21:43:09.577Z,87.62
2018-10-18T21:45:38.326Z,87.87
2018-10-18T21:48:07.154Z,89.31
2018-10-18T21:50:35.785Z,89.19
2018-10-18T21:53:04.505Z,90.41
2018-10-18T21:55:33.147Z,91.34
2018-10-18T21:58:01.884Z,91.85
2018-10-18T22:00:35.109Z,93.08
2018-10-18T22:03:03.901Z,93.37
2018-10-18T22:05:32.506Z,92.74
2018-10-18T22:08:01.250Z,93.11
2018-10-18T22:10:29.894Z,93.77
2018-10-18T22:12:58.555Z,94.06
2018-10-18T22:15:27.277Z,94.92
2018-10-18T22:17:55.887Z,94.66
2018-10-18T22:20:24.743Z,95.02
2018-10-18T22:22:53.426Z,95.24
2018-10-18T22:25:22.110Z,94.93
2018-10-18T22:27:50.819Z,95.34
2018-10-18T22:30:19.503Z,95.55
2018-10-18T22:32:48.175Z,95.28
2018-10-18T22:35:16.923Z,95.03
2018-10-18T22:37:45.540Z,94.62
2018-10-18T22:40:14.263Z,94.67
2018-10-18T22:42:42.957Z,94.98
2018-10-18T22:45:11.657Z,94.33
2018-10-18T22:47:40.235Z,94.17
2018-10-18T22:50:08.896Z,94.26
2018-10-18T22:52:37.573Z,94.71
2018-10-18T22:55:06.643Z,94.57
2018-10-18T22:57:35.274Z,94.57
2018-10-18T23:00:04.056Z,95.03
2018-10-18T23:02:32.697Z,95.03
2018-10-18T23:05:01.447Z,95.31
2018-10-18T23:07:30.134Z,95.71
2018-10-18T23:09:58.867Z,95.32
2018-10-18T23:12:27.663Z,95.15
2018-10-18T23:14:56.387Z,95.55
2018-10-18T23:17:25.027Z,95.27
2018-10-18T23:19:53.682Z,95.22
2018-10-18T23:22:22.347Z,95.35
2018-10-18T23:24:51.085Z,95.29
2018-10-18T23:27:18.819Z,94.95
2018-10-18T23:29:47.578Z,94.93
2018-10-18T23:32:16.220Z,94.87
2018-10-18T23:34:44.910Z,94.74
2018-10-18T23:37:13.590Z,94.93
2018-10-18T23:39:42.300Z,95.39
2018-10-18T23:42:11.018Z,95.22
2018-10-18T23:44:39.679Z,95.50
2018-10-18T23:47:08.372Z,95.68
2018-10-18T23:49:37.000Z,95.72
2018-10-18T23:52:05.812Z,95.62
2018-10-18T23:54:34.668Z,95.93
2018-10-18T23:57:03.365Z,96.19
2018-10-18T23:59:32.178Z,95.63
